Time;durP1;ratioP1;P1;durP2;ratioP2;P2;SDS_P1;SDS_P2;PMS_P1;PMS_P2;Temp;Humidity;BMP_temperature;BMP_pressure;BME280_temperature;BME280_humidity;BME280_pressure;Samples;Min_cycle;Max_cycle;Signal;HPM_P1;HPM_P2
2020/12/06 00:01:30;;;;;;;31.20;16.70;;;;;;;2.08;81.87;99860.19;5090264;28;20071;-51
2020/12/06 00:03:57;;;;;;;36.85;18.42;;;;;;;2.09;82.01;99862.59;5085792;28;20131;-50
2020/12/06 00:06:24;;;;;;;34.08;18.48;;;;;;;2.10;82.01;99855.22;5066593;28;20491;-52
2020/12/06 00:08:51;;;;;;;36.13;20.33;;;;;;;2.11;81.63;99859.56;5085574;28;20490;-48
2020/12/06 00:11:17;;;;;;;33.80;18.35;;;;;;;2.09;81.94;99851.66;5105623;28;20485;-48
2020/12/06 00:13:45;;;;;;;33.58;17.88;;;;;;;2.10;81.61;99856.03;5104634;28;20036;-50
2020/12/06 00:16:18;;;;;;;39.97;23.17;;;;;;;2.06;81.87;99862.41;5094721;28;20044;-50
2020/12/06 00:18:47;;;;;;;38.88;20.88;;;;;;;2.05;81.80;99858.06;5096386;28;20062;-50
2020/12/06 00:21:18;;;;;;;34.83;21.33;;;;;;;2.07;81.92;99869.47;5096055;28;20072;-49
2020/12/06 00:23:46;;;;;;;32.70;18.33;;;;;;;2.05;81.61;99860.78;5093843;28;20101;-49
2020/12/06 00:26:14;;;;;;;31.92;17.38;;;;;;;2.00;81.69;99852.72;5092879;28;20086;-49
2020/12/06 00:28:40;;;;;;;31.98;17.65;;;;;;;2.02;82.08;99861.41;5095066;28;20131;-49
2020/12/06 00:31:06;;;;;;;26.05;14.25;;;;;;;2.04;81.80;99856.47;5094543;28;20047;-49
2020/12/06 00:33:34;;;;;;;28.00;16.13;;;;;;;2.05;81.61;99850.69;5090924;28;20470;-51
2020/12/06 00:36:01;;;;;;;26.27;14.10;;;;;;;2.04;81.83;99859.97;5082730;28;20082;-47
2020/12/06 00:38:27;;;;;;;24.98;15.90;;;;;;;2.03;81.56;99863.03;5092987;28;20600;-50
2020/12/06 00:40:53;;;;;;;28.77;16.42;;;;;;;1.99;81.41;99856.56;5060104;28;20472;-48
2020/12/06 00:43:20;;;;;;;27.25;16.70;;;;;;;1.96;81.87;99865.41;5076680;28;20390;-50
2020/12/06 00:45:46;;;;;;;28.38;15.40;;;;;;;1.96;81.94;99859.94;5089811;28;20070;-52
2020/12/06 00:48:12;;;;;;;25.13;16.10;;;;;;;1.89;81.91;99849.44;5085743;28;20075;-52
2020/12/06 00:50:38;;;;;;;28.73;16.17;;;;;;;1.80;81.74;99854.81;5087890;28;20036;-51
2020/12/06 00:53:05;;;;;;;27.88;17.27;;;;;;;1.81;82.29;99853.72;5092590;28;20087;-49
2020/12/06 00:55:32;;;;;;;28.23;18.85;;;;;;;1.85;81.79;99849.25;5077101;28;20131;-48
2020/12/06 00:57:58;;;;;;;30.38;18.42;;;;;;;1.89;81.91;99851.38;5075449;28;20024;-48
2020/12/06 01:00:24;;;;;;;29.10;17.50;;;;;;;1.89;81.68;99852.19;5091980;28;20454;-50
2020/12/06 01:02:50;;;;;;;26.33;17.38;;;;;;;1.87;81.70;99845.41;5104598;28;20433;-49
2020/12/06 01:05:17;;;;;;;25.85;16.05;;;;;;;1.84;81.88;99849.56;5093802;28;20040;-51
2020/12/06 01:07:44;;;;;;;29.70;17.20;;;;;;;1.81;81.47;99840.06;5080691;28;20451;-51
2020/12/06 01:10:12;;;;;;;26.48;17.42;;;;;;;1.81;81.66;99839.28;5094805;28;20039;-47
2020/12/06 01:12:39;;;;;;;27.85;15.73;;;;;;;1.80;81.81;99843.91;5105983;28;20122;-47
2020/12/06 01:15:10;;;;;;;32.92;20.00;;;;;;;1.80;81.86;99838.47;5094359;28;20056;-49
2020/12/06 01:17:37;;;;;;;30.80;16.83;;;;;;;1.77;81.78;99836.34;5088269;28;20074;-46
2020/12/06 01:20:05;;;;;;;32.63;17.35;;;;;;;1.75;81.93;99844.03;5084795;28;20055;-50
2020/12/06 01:22:33;;;;;;;29.88;17.48;;;;;;;1.76;81.92;99844.84;5093662;28;20469;-52
2020/12/06 01:24:59;;;;;;;26.13;14.77;;;;;;;1.72;81.75;99839.19;5078039;28;20041;-51
2020/12/06 01:27:25;;;;;;;28.50;15.30;;;;;;;1.72;81.93;99838.41;5082816;28;20049;-46
2020/12/06 01:29:52;;;;;;;22.00;14.38;;;;;;;1.69;81.98;99842.56;5079329;28;20482;-50
2020/12/06 01:32:18;;;;;;;34.17;17.98;;;;;;;1.65;81.94;99836.09;5090147;28;20076;-51
2020/12/06 01:34:44;;;;;;;36.38;18.20;;;;;;;1.61;82.26;99842.47;5084943;28;20440;-49
2020/12/06 01:37:11;;;;;;;25.77;14.57;;;;;;;1.60;82.40;99838.94;5095758;28;20482;-50
2020/12/06 01:39:37;;;;;;;25.10;15.48;;;;;;;1.59;82.62;99834.59;5099441;28;20048;-47
2020/12/06 01:42:04;;;;;;;23.08;12.65;;;;;;;1.61;82.53;99839.75;5077735;28;20502;-49
2020/12/06 01:44:31;;;;;;;19.60;12.98;;;;;;;1.65;82.43;99841.56;5074346;28;20071;-48
2020/12/06 01:46:57;;;;;;;21.77;13.68;;;;;;;1.70;82.34;99846.06;5074095;28;20072;-49
2020/12/06 01:49:26;;;;;;;29.92;16.80;;;;;;;1.73;82.21;99853.66;5084207;28;20123;-49
2020/12/06 01:51:58;;;;;;;24.00;13.85;;;;;;;1.73;82.06;99840.81;5091055;28;20128;-53
2020/12/06 01:54:26;;;;;;;23.90;14.68;;;;;;;1.69;82.24;99848.03;5107382;28;20431;-50
2020/12/06 01:56:52;;;;;;;21.67;13.95;;;;;;;1.66;82.18;99842.38;5084180;28;20494;-48
2020/12/06 01:59:19;;;;;;;22.67;14.00;;;;;;;1.61;82.30;99846.03;5090179;28;20473;-46
2020/12/06 02:01:54;;;;;;;23.75;12.35;;;;;;;1.58;82.65;99852.09;5074044;28;20169;-47
2020/12/06 02:04:21;;;;;;;18.05;12.02;;;;;;;1.60;82.43;99849.84;5084181;28;20120;-49
2020/12/06 02:06:47;;;;;;;23.00;13.35;;;;;;;1.58;82.44;99852.09;5092523;28;20129;-51
2020/12/06 02:09:14;;;;;;;25.15;13.90;;;;;;;1.59;82.63;99850.97;5085379;28;20050;-49
2020/12/06 02:11:40;;;;;;;24.35;14.23;;;;;;;1.59;82.46;99859.13;5099456;28;20086;-47
2020/12/06 02:14:09;;;;;;;24.77;13.48;;;;;;;1.57;82.38;99858.66;5085947;28;20094;-46
2020/12/06 02:16:36;;;;;;;19.52;10.80;;;;;;;1.55;82.52;99869.06;5073639;28;20076;-48
2020/12/06 02:19:05;;;;;;;19.75;11.13;;;;;;;1.58;82.55;99871.19;5081742;28;20131;-50
2020/12/06 02:21:33;;;;;;;19.13;9.85;;;;;;;1.62;82.32;99868.63;5070832;28;20056;-48
2020/12/06 02:24:01;;;;;;;18.58;11.40;;;;;;;1.65;82.52;99866.09;5099468;28;20135;-50
2020/12/06 02:26:28;;;;;;;21.42;10.77;;;;;;;1.66;82.11;99867.72;5097146;28;20032;-49
2020/12/06 02:28:55;;;;;;;18.92;11.10;;;;;;;1.67;82.00;99866.59;5099007;28;20048;-47
2020/12/06 02:31:21;;;;;;;21.15;12.18;;;;;;;1.64;81.75;99872.66;5077579;28;20041;-49
2020/12/06 02:33:47;;;;;;;21.17;13.45;;;;;;;1.61;82.15;99872.50;5084182;28;20071;-46
2020/12/06 02:36:14;;;;;;;22.58;13.88;;;;;;;1.55;82.25;99885.44;5090443;28;20122;-48
2020/12/06 02:38:40;;;;;;;20.55;13.00;;;;;;;1.50;82.53;99871.91;5093975;28;20105;-47
2020/12/06 02:41:06;;;;;;;22.77;12.88;;;;;;;1.49;82.43;99869.47;5083450;28;20029;-47
2020/12/06 02:43:32;;;;;;;27.35;12.52;;;;;;;1.44;82.91;99861.41;5093023;28;20044;-47
2020/12/06 02:45:59;;;;;;;22.10;12.18;;;;;;;1.45;82.88;99876.66;5084485;28;20040;-48
2020/12/06 02:48:26;;;;;;;22.17;12.25;;;;;;;1.45;82.57;99877.47;5077495;28;20055;-47
2020/12/06 02:50:52;;;;;;;19.05;12.88;;;;;;;1.42;82.68;99875.34;5086531;28;20036;-48
2020/12/06 02:53:18;;;;;;;24.40;12.00;;;;;;;1.38;82.72;99879.78;5105076;28;20040;-48
2020/12/06 02:55:45;;;;;;;16.80;11.15;;;;;;;1.36;82.70;99882.03;5107012;28;20506;-47
2020/12/06 02:58:11;;;;;;;22.92;11.50;;;;;;;1.35;82.73;99877.69;5076519;28;20115;-50
2020/12/06 03:00:37;;;;;;;18.73;11.55;;;;;;;1.39;82.58;99886.88;5073842;28;20483;-49
2020/12/06 03:03:03;;;;;;;20.48;11.30;;;;;;;1.39;82.58;99889.59;5083742;28;20036;-51
2020/12/06 03:05:30;;;;;;;19.25;11.63;;;;;;;1.38;82.53;99893.44;5077235;28;20131;-50
2020/12/06 03:07:56;;;;;;;18.95;11.13;;;;;;;1.38;82.45;99898.09;5096357;28;20439;-48
2020/12/06 03:10:22;;;;;;;20.35;10.90;;;;;;;1.35;82.70;99898.72;5072800;28;20037;-47
2020/12/06 03:12:48;;;;;;;18.60;10.98;;;;;;;1.34;82.58;99895.16;5087941;28;20087;-48
2020/12/06 03:15:15;;;;;;;19.15;11.23;;;;;;;1.34;82.61;99900.63;5092237;28;20115;-47
2020/12/06 03:17:41;;;;;;;20.42;10.88;;;;;;;1.34;82.58;99900.63;5082215;28;20122;-47
2020/12/06 03:20:07;;;;;;;22.05;11.85;;;;;;;1.29;82.62;99914.38;5090811;28;20089;-50
2020/12/06 03:22:33;;;;;;;20.05;11.63;;;;;;;1.24;82.96;99907.06;5097327;28;20079;-48
2020/12/06 03:25:03;;;;;;;18.35;11.23;;;;;;;1.26;82.92;99892.34;5092821;28;20040;-50
2020/12/06 03:27:29;;;;;;;19.58;11.95;;;;;;;1.20;82.76;99905.25;5092909;28;20040;-48
2020/12/06 03:29:56;;;;;;;20.80;11.50;;;;;;;1.16;83.08;99899.63;5076376;28;20071;-47
2020/12/06 03:32:23;;;;;;;19.50;12.60;;;;;;;1.14;82.71;99901.84;5082335;28;20047;-48
2020/12/06 03:34:50;;;;;;;24.33;14.60;;;;;;;1.12;83.01;99903.25;5072286;28;20049;-47
2020/12/06 03:37:16;;;;;;;21.05;11.48;;;;;;;1.13;82.66;99913.06;5086080;28;20557;-50
2020/12/06 03:39:43;;;;;;;21.25;12.15;;;;;;;1.10;82.53;99911.75;5092078;28;20117;-47
2020/12/06 03:42:09;;;;;;;20.40;12.35;;;;;;;1.10;82.84;99905.47;5103326;28;20408;-49
2020/12/06 03:44:35;;;;;;;21.27;11.85;;;;;;;1.07;82.89;99906.91;5102350;28;20074;-46
2020/12/06 03:47:02;;;;;;;22.27;12.45;;;;;;;0.99;82.80;99904.88;5074244;28;20079;-50
2020/12/06 03:49:31;;;;;;;27.38;12.23;;;;;;;0.90;82.76;99905.88;5081643;28;20417;-47
2020/12/06 03:51:58;;;;;;;25.42;13.25;;;;;;;0.89;83.01;99909.72;5093045;28;20040;-48
2020/12/06 03:54:24;;;;;;;25.73;11.88;;;;;;;0.83;82.99;99905.47;5068611;28;20048;-47
2020/12/06 03:56:50;;;;;;;21.25;11.45;;;;;;;0.80;83.06;99906.88;5077049;28;20440;-48
2020/12/06 03:59:17;;;;;;;19.42;10.88;;;;;;;0.76;83.25;99908.59;5095579;28;20040;-47
2020/12/06 04:01:43;;;;;;;24.27;11.90;;;;;;;0.76;83.26;99915.94;5092208;28;20505;-47
2020/12/06 04:04:09;;;;;;;19.75;11.20;;;;;;;0.77;82.90;99907.47;5096439;28;20450;-46
2020/12/06 04:06:35;;;;;;;24.75;13.20;;;;;;;0.76;82.88;99915.94;5073208;28;20119;-47
2020/12/06 04:09:02;;;;;;;29.83;12.65;;;;;;;0.75;83.20;99914.31;5093868;28;20043;-47
2020/12/06 04:11:28;;;;;;;21.73;10.85;;;;;;;0.75;83.00;99911.59;5098313;28;20032;-48
2020/12/06 04:13:54;;;;;;;24.65;10.90;;;;;;;0.77;82.68;99917.59;5095594;28;20119;-49
2020/12/06 04:16:21;;;;;;;25.73;12.25;;;;;;;0.73;82.67;99913.81;5075103;28;20034;-49
2020/12/06 04:18:47;;;;;;;23.55;11.05;;;;;;;0.72;82.69;99909.47;5078360;28;20059;-48
2020/12/06 04:21:13;;;;;;;28.25;12.02;;;;;;;0.67;82.67;99901.41;5086494;28;20083;-50
2020/12/06 04:23:40;;;;;;;24.75;12.38;;;;;;;0.67;82.49;99904.13;5081890;28;20449;-48
2020/12/06 04:26:06;;;;;;;20.20;12.70;;;;;;;0.61;82.61;99901.50;5080424;28;20052;-48
2020/12/06 04:28:33;;;;;;;23.17;12.15;;;;;;;0.60;82.69;99899.91;5105679;28;20079;-49
2020/12/06 04:30:59;;;;;;;23.27;11.38;;;;;;;0.63;82.72;99905.84;5095520;28;20048;-47
2020/12/06 04:33:26;;;;;;;21.27;10.80;;;;;;;0.61;82.65;99904.22;5090685;28;20040;-51
2020/12/06 04:35:52;;;;;;;16.98;10.15;;;;;;;0.58;82.76;99902.09;5083391;28;20040;-52
2020/12/06 04:38:18;;;;;;;20.98;10.18;;;;;;;0.58;82.78;99904.81;5095483;28;20036;-48
2020/12/06 04:40:45;;;;;;;16.50;9.80;;;;;;;0.57;82.64;99907.84;5077994;28;20068;-50
2020/12/06 04:43:14;;;;;;;18.55;11.32;;;;;;;0.54;82.59;99905.72;5111093;28;20071;-49
2020/12/06 04:45:43;;;;;;;20.95;10.43;;;;;;;0.52;82.79;99899.78;5095063;28;20086;-50
2020/12/06 04:48:20;;;;;;;;;;;;;;;0.48;82.60;99905.00;5093962;28;20047;-47
2020/12/06 04:50:53;;;;;;;22.50;10.38;;;;;;;0.47;82.55;99908.84;5087872;28;19952;-48
2020/12/06 04:53:22;;;;;;;26.83;11.77;;;;;;;0.42;82.55;99908.94;5092223;28;20039;-47
2020/12/06 04:55:50;;;;;;;18.38;10.07;;;;;;;0.37;82.63;99909.00;5085089;28;20048;-49
2020/12/06 04:58:24;;;;;;;19.15;10.60;;;;;;;0.33;82.73;99902.53;5108147;28;20067;-49
2020/12/06 05:00:51;;;;;;;20.38;10.52;;;;;;;0.27;82.89;99903.72;5086499;28;20040;-49
2020/12/06 05:03:22;;;;;;;18.65;10.43;;;;;;;0.24;82.85;99895.38;5075507;28;20166;-48
2020/12/06 05:05:49;;;;;;;20.98;10.25;;;;;;;0.25;82.98;99905.94;5087413;28;20036;-47
2020/12/06 05:08:15;;;;;;;20.05;10.73;;;;;;;0.20;83.01;99900.59;5092862;28;20044;-50
2020/12/06 05:10:46;;;;;;;18.13;9.10;;;;;;;0.19;83.19;99896.25;5074654;28;20040;-54
2020/12/06 05:13:14;;;;;;;18.13;9.77;;;;;;;0.16;83.19;99905.00;5107835;28;20098;-49
2020/12/06 05:15:43;;;;;;;22.73;10.73;;;;;;;0.17;82.97;99901.19;5095259;28;20040;-48
2020/12/06 05:18:10;;;;;;;25.45;12.30;;;;;;;0.15;83.23;99910.75;5077192;28;20051;-48
2020/12/06 05:20:37;;;;;;;19.30;11.82;;;;;;;0.11;83.41;99912.47;5071737;28;20085;-51
2020/12/06 05:23:03;;;;;;;22.63;12.38;;;;;;;0.15;83.19;99911.56;5084302;28;20071;-49
2020/12/06 05:25:29;;;;;;;28.60;11.10;;;;;;;0.16;83.15;99915.88;5094757;28;20130;-48
2020/12/06 05:27:56;;;;;;;22.73;11.55;;;;;;;0.14;82.99;99912.66;5089913;28;20129;-47
2020/12/06 05:30:23;;;;;;;20.52;12.38;;;;;;;0.16;82.70;99910.44;5092463;28;20138;-47
2020/12/06 05:32:49;;;;;;;24.67;12.75;;;;;;;0.15;83.02;99910.75;5091189;28;20119;-47
2020/12/06 05:35:18;;;;;;;27.10;11.95;;;;;;;0.12;82.93;99911.34;5074220;28;20044;-48
2020/12/06 05:37:44;;;;;;;27.95;12.25;;;;;;;0.09;83.19;99912.75;5093687;28;20401;-47
2020/12/06 05:40:16;;;;;;;26.38;12.95;;;;;;;0.08;83.00;99913.06;5093854;28;20051;-48
2020/12/06 05:42:43;;;;;;;26.35;10.77;;;;;;;0.04;83.09;99923.72;5106340;28;20063;-52
2020/12/06 05:45:11;;;;;;;22.60;11.55;;;;;;;0.06;82.91;99917.97;5079049;28;20083;-49
2020/12/06 05:47:38;;;;;;;27.70;13.15;;;;;;;0.06;83.07;99926.94;5081586;28;20071;-49
2020/12/06 05:50:06;;;;;;;29.13;12.57;;;;;;;0.02;82.93;99923.19;5081147;28;20044;-50
2020/12/06 05:52:34;;;;;;;35.55;14.23;;;;;;;0.00;82.84;99928.13;5090021;28;20108;-51
2020/12/06 05:55:01;;;;;;;23.92;12.55;;;;;;;0.00;82.89;99915.31;5081979;28;20370;-50
2020/12/06 05:57:43;;;;;;;18.80;9.37;;;;;;;0.03;82.86;99918.56;5089388;28;20052;-47
2020/12/06 06:00:10;;;;;;;30.85;12.38;;;;;;;0.02;82.64;99917.75;5075949;28;20297;-47
2020/12/06 06:02:40;;;;;;;29.55;14.25;;;;;;;0.05;82.66;99917.19;5093046;28;20074;-48
2020/12/06 06:05:07;;;;;;;26.27;12.95;;;;;;;0.04;82.54;99921.00;5088265;28;20048;-49
2020/12/06 06:07:35;;;;;;;28.13;11.25;;;;;;;0.04;82.46;99918.25;5094692;28;20056;-50
2020/12/06 06:10:05;;;;;;;20.95;11.27;;;;;;;0.06;82.45;99928.84;5055847;28;20049;-48
2020/12/06 06:12:33;;;;;;;23.80;11.55;;;;;;;0.02;82.76;99928.66;5092762;28;20048;-51
2020/12/06 06:15:04;;;;;;;20.33;10.60;;;;;;;-0.02;82.62;99928.41;5066798;28;20029;-49
2020/12/06 06:17:31;;;;;;;20.95;10.95;;;;;;;0.00;82.75;99919.97;5073959;28;20453;-51
2020/12/06 06:19:59;;;;;;;24.73;10.38;;;;;;;0.02;82.60;99928.66;5069595;28;20040;-49
2020/12/06 06:22:54;;;;;;;19.38;11.23;;;;;;;-0.04;82.67;99935.25;5089298;28;20080;-50
2020/12/06 06:25:21;;;;;;;22.83;9.85;;;;;;;-0.06;82.82;99932.84;5070800;28;20109;-49
2020/12/06 06:27:49;;;;;;;19.40;10.38;;;;;;;-0.11;82.46;99929.38;5081919;28;20071;-49
2020/12/06 06:30:16;;;;;;;24.48;10.55;;;;;;;-0.14;82.85;99932.69;5073285;28;20116;-48
2020/12/06 06:32:42;;;;;;;23.10;11.32;;;;;;;-0.18;82.94;99937.09;5083284;28;20070;-49
2020/12/06 06:35:10;;;;;;;22.27;11.27;;;;;;;-0.20;82.94;99926.50;5089490;28;20051;-47
2020/12/06 06:37:38;;;;;;;20.05;10.20;;;;;;;-0.22;83.23;99933.34;5090872;28;20469;-52
2020/12/06 06:40:09;;;;;;;28.23;10.63;;;;;;;-0.25;82.97;99939.38;5075254;28;20101;-50
2020/12/06 06:42:37;;;;;;;30.15;11.82;;;;;;;-0.31;83.06;99943.25;5101290;28;20052;-50
2020/12/06 06:45:06;;;;;;;20.55;9.95;;;;;;;-0.35;83.21;99940.34;5081629;28;20044;-47
2020/12/06 06:47:41;;;;;;;28.55;11.52;;;;;;;-0.30;83.13;99939.44;5073951;28;20113;-47
2020/12/06 06:50:10;;;;;;;20.98;10.52;;;;;;;-0.30;82.95;99939.44;5069111;28;20048;-50
2020/12/06 06:52:40;;;;;;;20.80;9.40;;;;;;;-0.31;82.78;99938.63;5089082;28;20044;-49
2020/12/06 06:55:07;;;;;;;22.00;9.98;;;;;;;-0.36;82.94;99932.44;5085822;28;20424;-50
2020/12/06 06:57:35;;;;;;;23.15;10.65;;;;;;;-0.39;83.00;99936.56;5102928;28;20319;-48
2020/12/06 07:00:04;;;;;;;18.75;10.23;;;;;;;-0.37;82.98;99939.00;5087295;28;20068;-48
2020/12/06 07:02:39;;;;;;;23.40;9.85;;;;;;;-0.36;82.90;99940.63;5092674;28;20063;-49
2020/12/06 07:05:11;;;;;;;35.17;10.90;;;;;;;-0.39;82.83;99933.84;5075683;28;20071;-50
2020/12/06 07:07:54;;;;;;;20.00;10.35;;;;;;;-0.47;83.08;99952.72;5088674;28;20130;-48
2020/12/06 07:10:23;;;;;;;38.00;11.45;;;;;;;-0.51;83.10;99948.97;5087919;28;20036;-47
2020/12/06 07:12:55;;;;;;;24.15;11.27;;;;;;;-0.54;83.38;99941.41;5093550;28;20067;-50
2020/12/06 07:15:23;;;;;;;25.15;10.02;;;;;;;-0.54;83.38;99952.28;5088255;28;20540;-49
2020/12/06 07:17:51;;;;;;;24.02;9.77;;;;;;;-0.55;83.27;99947.94;5072983;28;20072;-51
2020/12/06 07:20:19;;;;;;;23.08;10.05;;;;;;;-0.61;83.42;99955.38;5075451;28;20052;-47
2020/12/06 07:22:46;;;;;;;23.73;9.95;;;;;;;-0.58;83.34;99954.75;5093707;28;20032;-49
2020/12/06 07:25:14;;;;;;;24.42;9.27;;;;;;;-0.57;83.33;99955.56;5096655;28;20130;-50
2020/12/06 07:27:41;;;;;;;30.15;10.45;;;;;;;-0.62;83.18;99951.84;5097118;28;20040;-49
2020/12/06 07:30:12;;;;;;;16.58;9.90;;;;;;;-0.62;83.42;99954.56;5091561;28;20044;-51
2020/12/06 07:32:39;;;;;;;14.40;9.15;;;;;;;-0.63;83.19;99944.75;5073151;28;20437;-52
2020/12/06 07:35:07;;;;;;;20.30;8.70;;;;;;;-0.65;83.53;99946.97;5089886;28;20127;-47
2020/12/06 07:37:33;;;;;;;40.08;10.00;;;;;;;-0.68;83.30;99947.56;5095609;28;20039;-47
2020/12/06 07:40:04;;;;;;;30.67;9.30;;;;;;;-0.75;83.47;99957.97;5117504;28;20173;-50
2020/12/06 07:42:31;;;;;;;34.17;9.50;;;;;;;-0.72;83.49;99957.41;5103123;28;20052;-48
2020/12/06 07:45:00;;;;;;;42.05;9.60;;;;;;;-0.72;83.37;99964.72;5085170;28;20614;-47
2020/12/06 07:47:27;;;;;;;43.63;14.15;;;;;;;-0.70;83.26;99966.06;5096340;28;20071;-50
2020/12/06 07:49:58;;;;;;;25.17;11.00;;;;;;;-0.68;83.58;99960.31;5088462;28;20118;-53
2020/12/06 07:52:29;;;;;;;27.40;7.87;;;;;;;-0.71;83.44;99967.16;5093746;28;20119;-50
2020/12/06 07:55:00;;;;;;;38.40;11.80;;;;;;;-0.66;83.29;99971.72;5086170;28;20064;-48
2020/12/06 07:57:38;;;;;;;25.17;10.35;;;;;;;-0.71;83.64;99975.31;5086005;28;20032;-50
2020/12/06 08:00:18;;;;;;;31.50;10.00;;;;;;;-0.77;83.50;99975.66;5064332;28;20075;-49
2020/12/06 08:02:49;;;;;;;18.17;9.02;;;;;;;-0.72;83.61;99979.13;5074716;28;20072;-52
2020/12/06 08:05:21;;;;;;;35.60;11.50;;;;;;;-0.73;83.73;99980.22;5084750;28;20040;-48
2020/12/06 08:07:55;;;;;;;26.88;9.48;;;;;;;-0.77;83.58;99981.88;5089500;28;20119;-52
2020/12/06 08:10:28;;;;;;;31.52;11.48;;;;;;;-0.82;83.84;99989.31;5077012;28;20638;-49
2020/12/06 08:12:55;;;;;;;32.25;10.63;;;;;;;-0.86;83.96;99977.38;5110829;28;20044;-50
2020/12/06 08:15:25;;;;;;;34.83;10.77;;;;;;;-0.80;83.64;99977.06;5101257;28;20127;-47
2020/12/06 08:17:53;;;;;;;32.92;11.20;;;;;;;-0.72;83.36;99987.28;5093494;28;20547;-47
2020/12/06 08:20:21;;;;;;;29.13;9.98;;;;;;;-0.68;83.56;99979.34;5094827;28;20126;-47
2020/12/06 08:22:56;;;;;;;37.45;11.35;;;;;;;-0.68;83.42;99973.91;5094622;28;20044;-49
2020/12/06 08:25:26;;;;;;;20.17;11.27;;;;;;;-0.68;83.46;99979.34;5094051;28;20072;-48
2020/12/06 08:27:54;;;;;;;31.10;11.80;;;;;;;-0.64;83.37;99977.69;5094696;28;20067;-51
2020/12/06 08:30:22;;;;;;;33.97;11.10;;;;;;;-0.70;83.29;99982.38;5074650;28;20128;-50
2020/12/06 08:33:01;;;;;;;55.05;12.57;;;;;;;-0.80;83.52;99976.25;5087891;28;20068;-50
2020/12/06 08:35:41;;;;;;;23.08;10.18;;;;;;;-0.82;83.71;99983.88;5079174;28;20101;-49
2020/12/06 08:38:13;;;;;;;40.92;11.93;;;;;;;-0.78;83.76;99980.28;5088233;28;20469;-50
2020/12/06 08:40:39;;;;;;;27.95;11.05;;;;;;;-0.79;83.76;99994.16;5093927;28;20063;-48
2020/12/06 08:43:06;;;;;;;30.15;10.52;;;;;;;-0.75;83.78;99987.88;5098131;28;20457;-48
2020/12/06 08:45:32;;;;;;;25.58;10.60;;;;;;;-0.67;83.61;99991.84;5068767;28;20041;-50
2020/12/06 08:47:58;;;;;;;48.28;12.30;;;;;;;-0.67;83.45;99991.84;5080313;28;20122;-52
2020/12/06 08:50:32;;;;;;;40.83;11.52;;;;;;;-0.72;83.62;99981.84;5081807;28;20442;-48
2020/12/06 08:52:59;;;;;;;108.82;18.80;;;;;;;-0.72;83.77;99995.44;5089281;28;20078;-50
2020/12/06 08:55:36;;;;;;;35.33;11.43;;;;;;;-0.74;83.90;99994.91;5089957;28;20505;-47
2020/12/06 08:58:03;;;;;;;33.63;10.55;;;;;;;-0.71;84.14;99996.22;5082378;28;20090;-48
2020/12/06 09:00:30;;;;;;;33.15;9.45;;;;;;;-0.72;83.95;99990.00;5089870;28;20517;-50
2020/12/06 09:02:59;;;;;;;49.10;11.38;;;;;;;-0.74;84.11;99992.19;5088511;28;20428;-53
2020/12/06 09:05:26;;;;;;;48.38;11.73;;;;;;;-0.70;84.02;99992.44;5084476;28;20041;-51
2020/12/06 09:07:52;;;;;;;40.15;10.88;;;;;;;-0.65;83.91;99984.22;5077478;28;20044;-52
2020/12/06 09:10:18;;;;;;;40.40;10.70;;;;;;;-0.62;83.75;99992.59;5082729;28;20412;-49
2020/12/06 09:12:45;;;;;;;30.15;10.90;;;;;;;-0.58;83.75;99992.03;5086171;28;20044;-46
2020/12/06 09:15:11;;;;;;;81.53;17.52;;;;;;;-0.52;83.82;99993.56;5084150;28;20055;-51
2020/12/06 09:17:38;;;;;;;55.95;13.25;;;;;;;-0.52;83.75;99990.84;5072710;28;20128;-52
2020/12/06 09:20:06;;;;;;;26.50;11.65;;;;;;;-0.54;83.72;99987.63;5079994;28;20052;-53
2020/12/06 09:22:32;;;;;;;38.70;11.73;;;;;;;-0.51;83.84;99998.72;5091787;28;20076;-49
2020/12/06 09:24:58;;;;;;;79.78;17.38;;;;;;;-0.52;83.87;99988.13;5085961;28;20123;-50
2020/12/06 09:27:25;;;;;;;34.22;12.05;;;;;;;-0.50;83.82;99978.56;5086877;28;20481;-52
2020/12/06 09:29:51;;;;;;;34.47;11.68;;;;;;;-0.47;83.85;99985.34;5076731;28;20036;-47
2020/12/06 09:32:18;;;;;;;42.65;13.18;;;;;;;-0.45;83.81;99980.44;5094632;28;20090;-49
2020/12/06 09:34:44;;;;;;;39.03;11.18;;;;;;;-0.44;83.88;99985.59;5076805;28;20044;-50
2020/12/06 09:37:10;;;;;;;28.80;11.40;;;;;;;-0.41;84.14;99973.31;5090010;28;20044;-49
2020/12/06 09:39:36;;;;;;;30.00;10.38;;;;;;;-0.35;84.20;99988.47;5089630;28;20086;-51
2020/12/06 09:42:03;;;;;;;21.10;8.77;;;;;;;-0.26;83.82;99986.69;5093792;28;20105;-47
2020/12/06 09:44:29;;;;;;;50.58;11.15;;;;;;;-0.28;83.85;99989.72;5093441;28;20132;-49
2020/12/06 09:46:55;;;;;;;17.52;6.68;;;;;;;-0.29;83.82;99992.75;5094183;28;20474;-48
2020/12/06 09:49:22;;;;;;;33.22;11.57;;;;;;;-0.32;83.98;99987.91;5094438;28;20055;-49
2020/12/06 09:51:48;;;;;;;63.00;12.05;;;;;;;-0.31;84.19;99989.50;5094108;28;20102;-48
2020/12/06 09:54:15;;;;;;;31.92;10.85;;;;;;;-0.22;84.19;99993.19;5094417;28;20064;-50
2020/12/06 09:56:42;;;;;;;42.50;12.07;;;;;;;-0.13;83.99;99991.41;5094277;28;20150;-50
2020/12/06 09:59:09;;;;;;;41.53;11.70;;;;;;;-0.08;83.76;99985.94;5093978;28;20047;-51
2020/12/06 10:01:35;;;;;;;36.53;12.38;;;;;;;-0.03;83.89;99996.75;5093784;28;20500;-50
2020/12/06 10:04:01;;;;;;;43.05;11.75;;;;;;;0.01;83.99;99989.59;5094003;28;20075;-51
2020/12/06 10:06:28;;;;;;;24.45;11.13;;;;;;;0.06;83.84;99994.16;5094039;28;20119;-49
2020/12/06 10:08:55;;;;;;;26.58;9.98;;;;;;;0.09;83.87;100005.25;5094036;28;20044;-48
2020/12/06 10:11:23;;;;;;;26.88;10.60;;;;;;;0.04;83.89;100002.63;5093069;28;20043;-48
2020/12/06 10:13:50;;;;;;;38.60;9.77;;;;;;;0.07;83.89;100001.22;5093360;28;20486;-53
2020/12/06 10:16:17;;;;;;;48.80;11.27;;;;;;;0.05;83.82;99996.09;5094302;28;20071;-46
2020/12/06 10:18:45;;;;;;;45.42;11.80;;;;;;;-0.04;83.66;100006.00;5093394;28;20047;-48
2020/12/06 10:21:14;;;;;;;55.45;12.48;;;;;;;-0.02;83.92;100001.06;5093544;28;20438;-53
2020/12/06 10:23:40;;;;;;;48.50;13.15;;;;;;;-0.02;83.93;100010.03;5075652;28;20050;-48
2020/12/06 10:26:06;;;;;;;40.28;12.07;;;;;;;-0.07;83.92;100017.47;5094093;28;20083;-53
2020/12/06 10:28:33;;;;;;;42.13;13.65;;;;;;;-0.01;84.00;100013.56;5094034;28;20065;-52
2020/12/06 10:30:59;;;;;;;49.67;11.93;;;;;;;-0.04;84.12;100008.72;5093178;28;20109;-49
2020/12/06 10:33:25;;;;;;;32.38;13.13;;;;;;;-0.01;84.10;100008.94;5093628;28;20097;-52
2020/12/06 10:35:51;;;;;;;40.10;13.15;;;;;;;0.03;84.20;100014.59;5075067;28;20064;-51
2020/12/06 10:38:18;;;;;;;54.22;13.20;;;;;;;-0.01;83.96;100017.13;5093554;28;20050;-46
2020/12/06 10:40:45;;;;;;;45.90;13.60;;;;;;;0.00;84.25;100009.78;5075665;28;20089;-51
2020/12/06 10:43:11;;;;;;;50.65;14.13;;;;;;;0.06;84.17;100010.47;5074947;28;20430;-47
2020/12/06 10:45:38;;;;;;;60.75;13.23;;;;;;;-0.03;84.18;100010.34;5093380;28;20040;-52
2020/12/06 10:48:04;;;;;;;33.45;10.55;;;;;;;0.00;84.16;100007.81;5092620;28;20473;-51
2020/12/06 10:50:32;;;;;;;31.25;10.35;;;;;;;0.07;84.28;100012.91;5093006;28;20036;-47
2020/12/06 10:52:59;;;;;;;40.53;11.27;;;;;;;0.15;84.15;100009.53;5093207;28;20036;-50
2020/12/06 10:55:25;;;;;;;41.65;11.85;;;;;;;0.16;84.22;100011.13;5093241;28;20093;-50
2020/12/06 10:57:53;;;;;;;45.50;12.52;;;;;;;0.25;84.17;100009.38;5093182;28;20085;-46
2020/12/06 11:00:20;;;;;;;39.15;11.73;;;;;;;0.21;83.84;100013.81;5093304;28;20119;-50
2020/12/06 11:02:47;;;;;;;61.03;13.20;;;;;;;0.22;84.08;100007.25;5075669;28;20036;-52
2020/12/06 11:05:13;;;;;;;32.45;12.02;;;;;;;0.31;84.12;100002.78;5092311;28;20123;-46
2020/12/06 11:07:39;;;;;;;36.47;13.00;;;;;;;0.37;84.05;100004.28;5092726;28;20466;-50
2020/12/06 11:10:06;;;;;;;31.73;12.73;;;;;;;0.45;83.97;100008.28;5093204;28;20047;-52
2020/12/06 11:12:32;;;;;;;43.05;13.30;;;;;;;0.44;83.91;99995.75;5092816;28;20048;-52
2020/12/06 11:14:59;;;;;;;57.15;12.63;;;;;;;0.41;83.78;100002.59;5074829;28;20050;-49
2020/12/06 11:17:30;;;;;;;59.20;13.68;;;;;;;0.45;84.06;99992.72;5074767;28;20123;-54
2020/12/06 11:19:58;;;;;;;60.97;12.68;;;;;;;0.48;83.96;99986.69;5092521;28;20036;-50
2020/12/06 11:22:24;;;;;;;63.00;13.63;;;;;;;0.48;83.99;99992.13;5093102;28;20128;-50
2020/12/06 11:24:51;;;;;;;39.45;12.85;;;;;;;0.45;83.88;99991.94;5093121;28;20044;-51